createdAt,value
2022-12-23T00:00:41.969Z,7.00
2022-12-23T00:03:10.329Z,8.00
2022-12-23T00:05:38.741Z,7.67
2022-12-23T00:08:07.548Z,7.67
2022-12-23T00:10:36.212Z,7.87
2022-12-23T00:13:23.099Z,7.40
2022-12-23T00:15:51.051Z,7.87
2022-12-23T00:18:18.927Z,8.47
2022-12-23T00:20:46.904Z,8.20
2022-12-23T00:23:14.822Z,8.20
2022-12-23T00:25:44.716Z,8.57
2022-12-23T00:28:15.823Z,8.03
2022-12-23T00:30:48.486Z,8.03
2022-12-23T00:33:17.972Z,7.53
2022-12-23T00:35:46.813Z,8.27
2022-12-23T00:38:14.907Z,8.13
2022-12-23T00:41:00.679Z,8.30
2022-12-23T00:43:29.906Z,8.40
2022-12-23T00:45:57.836Z,9.30
2022-12-23T00:48:51.532Z,8.30
2022-12-23T00:51:19.427Z,9.70
2022-12-23T00:53:47.320Z,10.17
2022-12-23T00:56:15.283Z,10.23
2022-12-23T00:58:44.521Z,9.87
2022-12-23T01:01:30.104Z,9.07
2022-12-23T01:04:16.022Z,9.37
2022-12-23T01:06:43.942Z,10.20
2022-12-23T01:09:11.869Z,10.37
2022-12-23T01:11:39.859Z,10.50
2022-12-23T01:14:10.272Z,9.97
2022-12-23T01:16:38.447Z,11.23
2022-12-23T01:19:06.793Z,12.10
2022-12-23T01:21:35.057Z,10.63
2022-12-23T01:24:03.088Z,12.10
2022-12-23T01:26:30.958Z,11.20
2022-12-23T01:28:59.723Z,12.20
2022-12-23T01:31:29.851Z,12.43
2022-12-23T01:33:57.818Z,11.60
2022-12-23T01:36:26.068Z,12.93
2022-12-23T01:38:54.020Z,11.97
2022-12-23T01:41:38.621Z,12.10
2022-12-23T01:44:39.877Z,11.43
2022-12-23T01:47:14.105Z,12.70
2022-12-23T01:49:42.509Z,11.37
2022-12-23T01:52:11.634Z,10.70
2022-12-23T01:54:40.679Z,11.73
2022-12-23T01:57:08.589Z,11.03
2022-12-23T01:59:54.697Z,11.07
2022-12-23T02:02:41.645Z,12.00
2022-12-23T02:05:09.845Z,13.73
2022-12-23T02:07:55.441Z,12.33
2022-12-23T02:10:27.427Z,13.47
2022-12-23T02:13:04.005Z,13.63
2022-12-23T02:15:57.071Z,14.67
2022-12-23T02:18:48.104Z,14.50
2022-12-23T02:21:53.204Z,15.17
2022-12-23T02:24:55.281Z,15.20
2022-12-23T02:27:32.086Z,14.63
2022-12-23T02:30:36.920Z,14.37
2022-12-23T02:33:31.542Z,15.07
2022-12-23T02:36:15.006Z,14.87
2022-12-23T02:38:53.525Z,14.27
2022-12-23T02:41:29.337Z,14.17
2022-12-23T02:44:01.131Z,15.23
2022-12-23T02:46:34.516Z,13.17
2022-12-23T02:49:09.059Z,16.23
2022-12-23T02:51:41.663Z,15.67
2022-12-23T02:54:14.620Z,15.83
2022-12-23T02:56:47.172Z,18.37
2022-12-23T02:59:19.550Z,18.00
2022-12-23T03:01:50.513Z,18.67
2022-12-23T03:04:18.488Z,18.70
2022-12-23T03:06:49.556Z,19.80
2022-12-23T03:09:25.925Z,17.77
2022-12-23T03:12:01.676Z,19.87
2022-12-23T03:14:46.707Z,16.63
2022-12-23T03:17:37.045Z,18.63
2022-12-23T03:20:12.811Z,17.83
2022-12-23T03:22:47.961Z,18.60
2022-12-23T03:25:22.616Z,16.67
2022-12-23T03:27:55.873Z,16.03
2022-12-23T03:30:24.664Z,16.47
2022-12-23T03:32:57.582Z,15.93
2022-12-23T03:35:30.931Z,15.90
2022-12-23T03:38:00.232Z,16.50
2022-12-23T03:40:32.072Z,15.23
2022-12-23T03:43:06.670Z,15.50
2022-12-23T03:45:41.301Z,14.77
2022-12-23T03:48:18.760Z,14.27
2022-12-23T03:50:49.629Z,12.63
2022-12-23T03:53:22.711Z,11.37
2022-12-23T03:55:55.203Z,11.63
2022-12-23T03:58:32.284Z,12.17
2022-12-23T04:01:05.501Z,10.37
2022-12-23T04:03:38.903Z,10.17
2022-12-23T04:06:11.868Z,9.80
2022-12-23T04:08:40.783Z,10.10
2022-12-23T04:11:08.951Z,10.40
2022-12-23T04:13:36.895Z,9.47
2022-12-23T04:16:05.626Z,10.50
2022-12-23T04:18:34.935Z,11.07
2022-12-23T04:21:02.790Z,10.40
2022-12-23T04:23:30.783Z,10.67
2022-12-23T04:25:58.748Z,12.63
2022-12-23T04:28:26.729Z,10.57
2022-12-23T04:30:54.812Z,11.27
2022-12-23T04:33:22.776Z,11.87
2022-12-23T04:35:52.041Z,12.43
2022-12-23T04:38:19.919Z,12.57
2022-12-23T04:40:48.031Z,12.30
2022-12-23T04:43:16.192Z,13.27
2022-12-23T04:45:44.108Z,13.70
2022-12-23T04:48:12.070Z,13.80
2022-12-23T04:50:40.607Z,13.47
2022-12-23T04:53:09.904Z,13.30
2022-12-23T04:55:37.788Z,13.40
2022-12-23T04:58:05.671Z,14.20
2022-12-23T05:00:39.180Z,13.80
2022-12-23T05:03:07.950Z,13.60
2022-12-23T05:05:36.028Z,14.77
2022-12-23T05:08:05.259Z,14.90
2022-12-23T05:10:34.516Z,15.33
2022-12-23T05:13:02.515Z,16.23
2022-12-23T05:15:33.007Z,14.70
2022-12-23T05:18:00.937Z,13.93
2022-12-23T05:20:28.824Z,15.43
2022-12-23T05:22:56.805Z,15.73
2022-12-23T05:25:24.674Z,15.73
2022-12-23T05:27:53.897Z,16.03
2022-12-23T05:30:21.820Z,16.13
2022-12-23T05:32:53.541Z,15.43
2022-12-23T05:35:21.766Z,15.30
2022-12-23T05:37:49.635Z,15.33
2022-12-23T05:40:23.205Z,15.90
2022-12-23T05:42:53.967Z,16.17
2022-12-23T05:45:21.859Z,16.13
2022-12-23T05:47:49.895Z,15.53
2022-12-23T05:50:17.894Z,17.03
2022-12-23T05:52:48.080Z,14.97
2022-12-23T05:55:16.094Z,16.20
2022-12-23T05:57:43.939Z,15.03
2022-12-23T06:00:14.659Z,14.57
2022-12-23T06:02:44.388Z,13.87
2022-12-23T06:05:15.901Z,13.40
2022-12-23T06:07:43.856Z,15.67
2022-12-23T06:10:12.804Z,14.43
2022-12-23T06:12:40.698Z,13.57
2022-12-23T06:15:09.555Z,15.37
2022-12-23T06:17:38.860Z,14.57
2022-12-23T06:20:07.999Z,15.37
2022-12-23T06:22:35.857Z,14.77
2022-12-23T06:25:03.779Z,14.33
2022-12-23T06:27:31.687Z,15.37
2022-12-23T06:29:59.610Z,16.77
2022-12-23T06:32:30.410Z,17.77
2022-12-23T06:35:02.099Z,15.93
2022-12-23T06:37:30.045Z,16.93
2022-12-23T06:39:57.973Z,16.97
2022-12-23T06:42:25.856Z,17.07
2022-12-23T06:44:53.820Z,17.97
2022-12-23T06:47:21.749Z,17.13
2022-12-23T06:49:49.680Z,16.87
2022-12-23T06:52:19.029Z,16.93
2022-12-23T06:54:46.909Z,17.20
2022-12-23T06:57:14.964Z,17.57
2022-12-23T06:59:42.893Z,17.27
2022-12-23T07:02:11.619Z,18.17
2022-12-23T07:04:39.783Z,17.27
2022-12-23T07:07:07.682Z,16.97
2022-12-23T07:09:36.912Z,15.47
2022-12-23T07:12:05.442Z,15.33
2022-12-23T07:14:33.380Z,15.33
2022-12-23T07:17:01.325Z,16.50
2022-12-23T07:19:29.234Z,17.83
2022-12-23T07:21:57.169Z,15.03
2022-12-23T07:24:25.082Z,14.40
2022-12-23T07:26:55.791Z,15.03
2022-12-23T07:29:23.737Z,15.47
2022-12-23T07:31:51.668Z,14.83
2022-12-23T07:34:19.563Z,14.53
2022-12-23T07:36:47.431Z,14.63
2022-12-23T07:39:15.640Z,13.80
2022-12-23T07:41:43.569Z,13.73
2022-12-23T07:44:15.512Z,13.27
2022-12-23T07:46:43.460Z,13.30
2022-12-23T07:49:11.396Z,12.30
2022-12-23T07:51:39.219Z,12.07
2022-12-23T07:54:07.243Z,11.93
2022-12-23T07:56:35.087Z,12.07
2022-12-23T07:59:02.966Z,12.23
2022-12-23T08:01:32.238Z,11.63
2022-12-23T08:04:00.256Z,11.00
2022-12-23T08:06:28.314Z,11.23
2022-12-23T08:08:56.224Z,11.27
2022-12-23T08:11:24.448Z,10.67
2022-12-23T08:13:52.876Z,9.93
2022-12-23T08:16:21.038Z,8.90
2022-12-23T08:18:50.276Z,9.43
2022-12-23T08:21:20.223Z,9.97
2022-12-23T08:23:48.908Z,11.07
2022-12-23T08:26:19.208Z,10.17
2022-12-23T08:28:47.656Z,10.10
2022-12-23T08:31:18.297Z,9.23
2022-12-23T08:33:48.610Z,9.63
2022-12-23T08:36:23.373Z,9.30
2022-12-23T08:38:52.931Z,9.20
2022-12-23T08:41:23.336Z,8.50
2022-12-23T08:43:51.574Z,8.27
2022-12-23T08:46:19.928Z,7.93
2022-12-23T08:48:49.809Z,7.83
2022-12-23T08:51:20.993Z,7.70
2022-12-23T08:53:52.428Z,7.87
2022-12-23T08:56:25.906Z,7.53
2022-12-23T08:58:55.446Z,8.00
2022-12-23T09:01:25.833Z,7.93
2022-12-23T09:03:54.342Z,8.30
2022-12-23T09:06:29.705Z,8.57
2022-12-23T09:08:58.967Z,8.13
2022-12-23T09:11:28.889Z,9.00
2022-12-23T09:13:57.214Z,8.37
2022-12-23T09:16:25.526Z,9.73
2022-12-23T09:18:53.523Z,8.67
2022-12-23T09:21:26.537Z,9.47
2022-12-23T09:23:54.464Z,9.27
2022-12-23T09:26:23.891Z,9.50
2022-12-23T09:28:52.005Z,8.77
2022-12-23T09:31:20.834Z,9.07
2022-12-23T09:33:50.356Z,9.80
2022-12-23T09:36:19.048Z,9.03
2022-12-23T09:38:48.828Z,9.60
2022-12-23T09:41:29.563Z,9.00
2022-12-23T09:44:12.685Z,8.53
2022-12-23T09:46:47.780Z,8.17
2022-12-23T09:49:18.414Z,8.27
2022-12-23T09:51:48.648Z,8.13
2022-12-23T09:54:21.573Z,8.17
2022-12-23T09:56:53.405Z,8.03
2022-12-23T09:59:32.059Z,7.60
2022-12-23T10:02:08.064Z,7.37
2022-12-23T10:04:42.780Z,7.17
2022-12-23T10:07:28.620Z,7.53
2022-12-23T10:10:00.597Z,7.13
2022-12-23T10:12:40.160Z,7.87
2022-12-23T10:15:22.494Z,7.30
2022-12-23T10:17:57.106Z,7.60
2022-12-23T10:20:34.662Z,7.40
2022-12-23T10:23:02.668Z,7.50
2022-12-23T10:25:39.786Z,7.20
2022-12-23T10:28:10.924Z,6.67
2022-12-23T10:31:11.177Z,6.90
2022-12-23T10:33:43.749Z,6.40
2022-12-23T10:36:16.597Z,6.43
2022-12-23T10:38:54.234Z,7.07
2022-12-23T10:41:34.744Z,6.80
2022-12-23T10:44:27.065Z,6.30
2022-12-23T10:47:06.371Z,6.43
2022-12-23T10:49:47.784Z,5.80
2022-12-23T10:52:20.491Z,5.70
2022-12-23T10:54:49.320Z,6.07
2022-12-23T10:57:20.319Z,6.13
2022-12-23T10:59:48.383Z,6.47
2022-12-23T11:02:37.958Z,5.47
2022-12-23T11:05:13.448Z,5.87
2022-12-23T11:07:45.148Z,6.17
2022-12-23T11:10:18.682Z,5.57
2022-12-23T11:12:50.045Z,5.37
2022-12-23T11:15:33.460Z,5.87
2022-12-23T11:18:07.745Z,5.60
2022-12-23T11:20:37.113Z,5.27
2022-12-23T11:23:07.253Z,4.90
2022-12-23T11:25:37.603Z,5.37
2022-12-23T11:28:13.471Z,5.17
2022-12-23T11:30:55.586Z,4.40
2022-12-23T11:33:27.010Z,4.23
2022-12-23T11:36:04.153Z,4.40
2022-12-23T11:38:33.026Z,4.00
2022-12-23T11:41:01.172Z,4.67
2022-12-23T11:43:31.734Z,4.53
2022-12-23T11:46:24.997Z,4.97
2022-12-23T11:49:08.562Z,4.43
2022-12-23T11:51:36.454Z,5.10
2022-12-23T11:54:05.044Z,5.00
2022-12-23T11:56:39.691Z,4.97
2022-12-23T11:59:19.340Z,5.30
2022-12-23T12:01:49.398Z,4.83
2022-12-23T12:04:23.082Z,5.27
2022-12-23T12:06:56.397Z,5.57
2022-12-23T12:09:25.696Z,5.27
2022-12-23T12:11:57.447Z,5.07
2022-12-23T12:14:33.587Z,4.77
2022-12-23T12:17:06.747Z,5.27
2022-12-23T12:19:37.161Z,4.83
2022-12-23T12:22:11.364Z,4.77
2022-12-23T12:24:45.495Z,5.00
2022-12-23T12:27:14.128Z,5.10
2022-12-23T12:29:49.150Z,5.67
2022-12-23T12:32:23.529Z,6.07
2022-12-23T12:34:55.810Z,5.80
2022-12-23T12:37:32.604Z,6.43
2022-12-23T12:40:31.594Z,6.33
2022-12-23T12:43:03.552Z,5.97
2022-12-23T12:45:40.591Z,5.30
2022-12-23T12:48:24.751Z,6.70
2022-12-23T12:51:01.277Z,5.70
2022-12-23T12:53:30.915Z,6.80
2022-12-23T12:56:06.237Z,5.67
2022-12-23T12:58:34.188Z,5.87
2022-12-23T13:01:18.430Z,5.30
2022-12-23T13:04:19.270Z,5.70
2022-12-23T13:06:55.049Z,5.40
2022-12-23T13:09:29.463Z,5.43
2022-12-23T13:12:06.358Z,5.50
2022-12-23T13:14:56.396Z,5.33
2022-12-23T13:17:28.290Z,5.80
2022-12-23T13:20:02.677Z,5.83
2022-12-23T13:22:34.190Z,5.20
2022-12-23T13:25:06.625Z,5.17
2022-12-23T13:27:39.162Z,5.20
2022-12-23T13:30:13.800Z,5.13
2022-12-23T13:33:07.830Z,5.10
2022-12-23T13:36:02.956Z,4.20
2022-12-23T13:38:53.213Z,5.60
2022-12-23T13:41:28.974Z,3.77
2022-12-23T13:44:00.367Z,4.00
2022-12-23T13:46:43.229Z,4.00
2022-12-23T13:49:22.841Z,3.97
2022-12-23T13:51:58.393Z,3.93
2022-12-23T13:54:38.507Z,4.70
2022-12-23T13:57:14.729Z,4.80
2022-12-23T13:59:45.525Z,5.10
2022-12-23T14:02:42.880Z,4.67
2022-12-23T14:05:34.453Z,5.00
2022-12-23T14:08:05.449Z,4.70
2022-12-23T14:10:34.633Z,4.40
2022-12-23T14:13:09.380Z,4.20
2022-12-23T14:15:55.182Z,4.27
2022-12-23T14:19:01.166Z,4.13
2022-12-23T14:21:41.378Z,4.50
2022-12-23T14:24:39.032Z,4.87
2022-12-23T14:27:27.547Z,5.17
2022-12-23T14:30:06.545Z,5.00
2022-12-23T14:32:43.737Z,5.27
2022-12-23T14:35:25.193Z,5.50
2022-12-23T14:38:28.058Z,5.10
2022-12-23T14:41:18.739Z,6.00
2022-12-23T14:43:55.730Z,5.00
2022-12-23T14:46:57.799Z,6.87
2022-12-23T14:49:44.132Z,5.20
2022-12-23T14:52:54.847Z,6.30
2022-12-23T14:56:07.833Z,5.13
2022-12-23T14:58:53.183Z,5.43
2022-12-23T15:01:29.785Z,6.17
2022-12-23T15:04:01.620Z,6.03
2022-12-23T15:06:36.373Z,5.70
2022-12-23T15:09:05.856Z,5.70
2022-12-23T15:11:36.334Z,5.47
2022-12-23T15:14:10.056Z,5.33
2022-12-23T15:16:40.333Z,5.00
2022-12-23T15:19:19.831Z,5.37
2022-12-23T15:21:54.470Z,4.73
2022-12-23T15:24:28.287Z,3.60
2022-12-23T15:27:26.647Z,3.73
2022-12-23T15:29:50.367Z,3.20
2022-12-23T15:32:19.443Z,3.33
2022-12-23T15:34:48.932Z,3.30
2022-12-23T15:37:20.104Z,3.00
2022-12-23T15:39:55.239Z,3.40
2022-12-23T15:42:31.707Z,3.10
2022-12-23T15:45:01.023Z,2.83
2022-12-23T15:47:31.380Z,3.27
2022-12-23T15:49:59.924Z,3.30
2022-12-23T15:52:29.170Z,3.30
2022-12-23T15:55:01.705Z,3.67
2022-12-23T15:57:31.243Z,4.17
2022-12-23T16:00:00.820Z,4.27
2022-12-23T16:02:59.804Z,4.43
2022-12-23T16:05:27.393Z,4.70
2022-12-23T16:08:10.465Z,5.13
2022-12-23T16:10:39.576Z,5.20
2022-12-23T16:13:17.464Z,5.07
2022-12-23T16:15:47.433Z,4.70
2022-12-23T16:18:22.665Z,4.83
2022-12-23T16:20:53.423Z,4.70
2022-12-23T16:23:22.928Z,5.47
2022-12-23T16:25:53.826Z,4.60
2022-12-23T16:28:24.359Z,4.70
2022-12-23T16:30:56.336Z,5.60
2022-12-23T16:33:34.938Z,5.17
2022-12-23T16:36:17.386Z,5.40
2022-12-23T16:38:45.687Z,5.57
2022-12-23T16:41:13.629Z,5.67
2022-12-23T16:43:51.299Z,5.70
2022-12-23T16:46:23.459Z,5.20
2022-12-23T16:48:53.341Z,5.37
2022-12-23T16:51:24.291Z,5.37
2022-12-23T16:53:56.180Z,5.87
2022-12-23T16:56:25.735Z,5.13
2022-12-23T16:58:53.713Z,4.83
2022-12-23T17:01:25.085Z,5.17
2022-12-23T17:03:53.874Z,5.70
2022-12-23T17:06:22.237Z,4.70
2022-12-23T17:08:51.091Z,4.60
2022-12-23T17:11:22.829Z,4.57
2022-12-23T17:13:51.291Z,4.63
2022-12-23T17:16:21.055Z,4.30
2022-12-23T17:18:51.437Z,4.10
2022-12-23T17:21:23.091Z,4.83
2022-12-23T17:23:51.899Z,4.83
2022-12-23T17:26:20.792Z,4.93
2022-12-23T17:28:48.693Z,4.60
2022-12-23T17:31:24.338Z,4.47
2022-12-23T17:33:55.699Z,4.70
2022-12-23T17:36:24.004Z,4.53
2022-12-23T17:38:52.008Z,5.17
2022-12-23T17:41:25.943Z,5.03
2022-12-23T17:43:53.853Z,4.50
2022-12-23T17:46:22.306Z,4.80
2022-12-23T17:48:50.400Z,6.17
2022-12-23T17:51:22.424Z,5.90
2022-12-23T17:53:57.408Z,5.43
2022-12-23T17:56:27.793Z,5.87
2022-12-23T17:58:55.878Z,6.30
2022-12-23T18:01:25.930Z,6.37
2022-12-23T18:03:54.458Z,5.20
2022-12-23T18:06:25.428Z,4.90
2022-12-23T18:08:53.420Z,4.80
2022-12-23T18:11:24.548Z,5.53
2022-12-23T18:13:54.212Z,5.10
2022-12-23T18:16:22.354Z,4.87
2022-12-23T18:18:50.294Z,5.10
2022-12-23T18:21:22.155Z,5.13
2022-12-23T18:23:52.163Z,5.90
2022-12-23T18:26:20.111Z,5.20
2022-12-23T18:28:48.083Z,4.90
2022-12-23T18:31:18.312Z,5.27
2022-12-23T18:33:46.819Z,5.13
2022-12-23T18:36:23.661Z,5.30
2022-12-23T18:38:53.702Z,5.27
2022-12-23T18:41:22.394Z,5.30
2022-12-23T18:43:50.756Z,5.10
2022-12-23T18:46:19.962Z,5.30
2022-12-23T18:48:48.100Z,6.00
2022-12-23T18:51:17.462Z,4.97
2022-12-23T18:53:46.120Z,5.93
2022-12-23T18:56:15.879Z,5.27
2022-12-23T18:58:44.050Z,5.33
2022-12-23T19:01:13.503Z,5.50
2022-12-23T19:03:41.717Z,5.60
2022-12-23T19:06:12.710Z,4.80
2022-12-23T19:08:41.992Z,4.57
2022-12-23T19:11:15.939Z,4.80
2022-12-23T19:13:43.848Z,5.60
2022-12-23T19:16:14.039Z,5.50
2022-12-23T19:18:42.250Z,5.30
2022-12-23T19:21:10.226Z,5.50
2022-12-23T19:23:38.275Z,5.57
2022-12-23T19:26:06.705Z,5.33
2022-12-23T19:28:37.463Z,4.80
2022-12-23T19:31:08.737Z,4.93
2022-12-23T19:33:37.619Z,5.40
2022-12-23T19:36:10.597Z,5.60
2022-12-23T19:38:38.681Z,5.73
2022-12-23T19:41:07.116Z,6.03
2022-12-23T19:43:37.027Z,6.20
2022-12-23T19:46:07.478Z,5.50
2022-12-23T19:48:35.691Z,6.57
2022-12-23T19:51:05.821Z,5.73
2022-12-23T19:53:33.962Z,6.50
2022-12-23T19:56:03.333Z,5.23
2022-12-23T19:58:34.012Z,4.90
2022-12-23T20:01:11.504Z,5.43
2022-12-23T20:03:40.327Z,5.83
2022-12-23T20:06:12.462Z,6.63
2022-12-23T20:08:40.506Z,5.67
2022-12-23T20:11:10.443Z,5.77
2022-12-23T20:13:38.643Z,5.90
2022-12-23T20:16:07.709Z,5.90
2022-12-23T20:18:37.167Z,5.80
2022-12-23T20:21:06.907Z,6.23
2022-12-23T20:23:35.526Z,5.23
2022-12-23T20:26:03.909Z,5.50
2022-12-23T20:28:33.300Z,4.47
2022-12-23T20:31:07.277Z,4.83
2022-12-23T20:33:36.969Z,6.27
2022-12-23T20:36:10.091Z,5.00
2022-12-23T20:38:39.557Z,5.47
2022-12-23T20:41:07.666Z,5.13
2022-12-23T20:43:35.851Z,4.80
2022-12-23T20:46:04.478Z,5.13
2022-12-23T20:48:34.229Z,5.10
2022-12-23T20:51:07.024Z,6.13
2022-12-23T20:53:35.233Z,5.23
2022-12-23T20:56:05.459Z,5.90
2022-12-23T20:58:50.161Z,5.50
2022-12-23T21:01:18.125Z,5.63
2022-12-23T21:03:46.055Z,6.33
2022-12-23T21:06:15.340Z,5.27
2022-12-23T21:08:43.228Z,5.83
2022-12-23T21:11:11.429Z,6.03
2022-12-23T21:13:40.420Z,6.23
2022-12-23T21:16:10.248Z,5.43
2022-12-23T21:18:41.870Z,5.20
2022-12-23T21:21:10.395Z,6.27
2022-12-23T21:23:40.796Z,5.60
2022-12-23T21:26:11.560Z,5.93
2022-12-23T21:28:40.212Z,5.67
2022-12-23T21:31:08.978Z,6.20
2022-12-23T21:33:38.359Z,5.47
2022-12-23T21:36:07.671Z,6.63
2022-12-23T21:38:37.196Z,6.40
2022-12-23T21:41:08.596Z,5.30
2022-12-23T21:43:36.685Z,5.53
2022-12-23T21:46:07.385Z,5.33
2022-12-23T21:48:37.184Z,4.97
2022-12-23T21:51:06.964Z,4.80
2022-12-23T21:53:35.464Z,4.90
2022-12-23T21:56:06.756Z,4.73
2022-12-23T21:58:35.584Z,5.10
2022-12-23T22:01:08.181Z,4.73
2022-12-23T22:03:37.013Z,5.40
2022-12-23T22:06:10.192Z,4.33
2022-12-23T22:08:39.016Z,5.13
2022-12-23T22:11:09.309Z,4.43
2022-12-23T22:13:38.012Z,5.47
2022-12-23T22:16:09.555Z,4.77
2022-12-23T22:18:37.985Z,4.63
2022-12-23T22:21:06.394Z,4.53
2022-12-23T22:23:34.647Z,4.57
2022-12-23T22:26:02.685Z,5.17
2022-12-23T22:28:35.649Z,4.73
2022-12-23T22:31:04.592Z,5.70
2022-12-23T22:33:33.173Z,4.20
2022-12-23T22:36:01.249Z,4.77
2022-12-23T22:38:29.340Z,4.20
2022-12-23T22:40:57.261Z,4.90
2022-12-23T22:43:25.303Z,5.10
2022-12-23T22:45:58.428Z,4.90
2022-12-23T22:48:28.747Z,5.50
2022-12-23T22:51:02.710Z,4.37
2022-12-23T22:53:30.678Z,4.93
2022-12-23T22:55:59.531Z,5.30
2022-12-23T22:58:28.945Z,4.37
2022-12-23T23:00:58.993Z,4.83
2022-12-23T23:03:27.371Z,4.70
2022-12-23T23:06:00.403Z,5.50
2022-12-23T23:08:28.885Z,5.07
2022-12-23T23:10:57.609Z,5.93
2022-12-23T23:13:26.118Z,5.27
2022-12-23T23:15:54.596Z,5.37
2022-12-23T23:18:24.602Z,4.97
2022-12-23T23:20:52.854Z,5.77
2022-12-23T23:23:21.565Z,5.67
2022-12-23T23:25:49.649Z,4.87
2022-12-23T23:28:17.819Z,5.37
2022-12-23T23:30:45.772Z,5.13
2022-12-23T23:33:13.714Z,5.10
2022-12-23T23:35:42.950Z,5.67
2022-12-23T23:38:10.881Z,5.43
2022-12-23T23:40:39.043Z,5.60
2022-12-23T23:43:06.942Z,5.57
2022-12-23T23:45:34.891Z,5.33
2022-12-23T23:48:02.798Z,4.77
2022-12-23T23:50:31.223Z,4.93
2022-12-23T23:53:00.443Z,5.57
2022-12-23T23:55:28.373Z,5.80
2022-12-23T23:57:56.349Z,5.30
